Time;durP1;ratioP1;P1;durP2;ratioP2;P2;SDS_P1;SDS_P2;PMS_P1;PMS_P2;Temp;Humidity;BMP_temperature;BMP_pressure;BME280_temperature;BME280_humidity;BME280_pressure;Samples;Min_cycle;Max_cycle;Signal;HPM_P1;HPM_P2
2021/12/16 00:01:47;;;;;;;21.15;15.02;;;9.50;79.40;;;;;;5014932;28;20041;-65
2021/12/16 00:09:57;;;;;;;26.92;15.63;;;9.50;79.70;;;;;;5016160;28;20040;-65
2021/12/16 00:32:04;;;;;;;30.13;18.17;;;9.20;80.90;;;;;;4998736;28;20514;-65
2021/12/16 00:34:31;;;;;;;31.88;18.65;;;9.20;81.00;;;;;;5013560;28;20540;-65
2021/12/16 00:37:00;;;;;;;33.22;18.48;;;9.20;81.10;;;;;;5013525;28;20029;-64
2021/12/16 00:39:35;;;;;;;34.03;18.73;;;9.20;80.50;;;;;;5013473;28;20089;-64
2021/12/16 00:43:13;;;;;;;;;;;9.10;81.20;;;;;;5013651;28;20144;-65
2021/12/16 00:47:50;;;;;;;28.50;15.15;;;9.00;81.60;;;;;;5013293;28;20025;-65
2021/12/16 00:55:53;;;;;;;30.48;15.48;;;9.00;82.20;;;;;;5013346;28;20045;-64
2021/12/16 00:58:30;;;;;;;29.05;15.77;;;9.00;81.80;;;;;;5012872;28;20395;-65
2021/12/16 01:01:27;;;;;;;29.63;16.95;;;9.00;81.80;;;;;;4996418;28;20069;-64
2021/12/16 01:36:43;;;;;;;28.63;16.73;;;8.70;82.10;;;;;;5012795;28;20037;-65
2021/12/16 01:57:31;;;;;;;22.35;15.38;;;8.70;83.30;;;;;;4995087;28;20038;-65
2021/12/16 02:00:05;;;;;;;28.65;14.68;;;8.60;83.80;;;;;;4996192;28;20106;-64
2021/12/16 02:05:20;;;;;;;23.42;14.13;;;8.60;83.90;;;;;;5012611;28;20122;-65
2021/12/16 02:10:37;;;;;;;21.98;13.63;;;8.50;84.30;;;;;;5013521;28;20109;-64
2021/12/16 02:37:33;;;;;;;17.75;12.27;;;8.40;84.30;;;;;;5015677;28;20403;-81
2021/12/16 02:40:08;;;;;;;17.35;11.05;;;8.40;84.90;;;;;;4999579;28;20081;-78
2021/12/16 02:42:50;;;;;;;16.65;10.57;;;8.40;84.90;;;;;;4982245;28;20042;-83
2021/12/16 02:50:49;;;;;;;16.25;10.27;;;8.40;85.10;;;;;;5016188;28;20433;-80
2021/12/16 02:53:16;;;;;;;17.25;10.93;;;8.40;85.30;;;;;;4998624;28;20056;-75
2021/12/16 02:55:42;;;;;;;16.23;10.13;;;8.30;84.30;;;;;;5015954;28;20483;-83
2021/12/16 02:58:09;;;;;;;14.82;10.15;;;8.30;85.50;;;;;;5015728;28;20037;-80
2021/12/16 03:00:42;;;;;;;14.38;10.02;;;8.30;85.80;;;;;;5015687;28;20030;-80
2021/12/16 03:03:09;;;;;;;18.27;9.80;;;8.30;85.90;;;;;;5015413;28;20487;-81
2021/12/16 03:05:42;;;;;;;15.15;9.10;;;8.30;85.20;;;;;;5015469;28;20487;-81
2021/12/16 03:08:10;;;;;;;16.27;9.95;;;8.30;85.80;;;;;;5014531;28;20073;-83
2021/12/16 03:16:16;;;;;;;21.40;10.38;;;8.30;85.70;;;;;;5004268;28;20061;-77
2021/12/16 03:19:07;;;;;;;14.23;9.57;;;8.30;86.10;;;;;;5014632;28;20085;-84
2021/12/16 03:21:41;;;;;;;13.63;9.60;;;8.30;85.00;;;;;;5015062;28;20098;-77
2021/12/16 03:35:02;;;;;;;15.43;9.70;;;8.20;85.50;;;;;;5015070;28;20395;-82
2021/12/16 03:37:30;;;;;;;15.95;9.68;;;8.20;86.00;;;;;;5000447;28;20022;-83
2021/12/16 03:40:10;;;;;;;15.73;9.80;;;8.20;86.40;;;;;;5014238;28;20034;-83
2021/12/16 03:42:58;;;;;;;15.55;9.32;;;8.10;85.90;;;;;;5014011;28;20038;-84
2021/12/16 03:48:39;;;;;;;12.77;8.35;;;8.10;85.60;;;;;;5015028;28;20180;-64
2021/12/16 03:51:12;;;;;;;13.68;8.98;;;8.10;87.20;;;;;;5014942;28;20033;-65
2021/12/16 03:53:43;;;;;;;17.35;9.77;;;8.10;86.70;;;;;;5015309;28;20431;-74
2021/12/16 03:56:10;;;;;;;12.95;9.25;;;8.10;86.50;;;;;;5013506;28;20172;-80
2021/12/16 03:58:37;;;;;;;16.83;9.70;;;8.10;86.70;;;;;;5014703;28;20064;-78
2021/12/16 04:01:15;;;;;;;13.10;9.15;;;8.10;86.90;;;;;;5012898;28;20072;-78
2021/12/16 04:03:41;;;;;;;13.63;9.10;;;8.10;87.10;;;;;;5013875;28;20038;-73
2021/12/16 04:06:08;;;;;;;18.30;9.20;;;8.00;86.90;;;;;;5016630;28;20509;-77
2021/12/16 04:08:36;;;;;;;12.00;7.70;;;8.10;87.20;;;;;;5016258;28;20030;-70
2021/12/16 04:11:12;;;;;;;11.32;8.00;;;8.00;86.30;;;;;;5016508;28;20046;-71
2021/12/16 04:13:53;;;;;;;14.45;7.50;;;8.10;87.20;;;;;;5016229;28;20034;-64
2021/12/16 04:16:29;;;;;;;12.82;7.50;;;8.10;86.40;;;;;;5014736;28;20064;-66
2021/12/16 04:18:56;;;;;;;11.75;7.55;;;8.10;86.30;;;;;;5014211;28;20033;-65
2021/12/16 04:21:26;;;;;;;12.48;7.40;;;8.10;87.10;;;;;;5014639;28;20022;-64
2021/12/16 04:23:54;;;;;;;10.82;6.97;;;8.10;86.40;;;;;;5014275;28;20514;-64
2021/12/16 04:26:21;;;;;;;9.45;6.78;;;8.10;86.60;;;;;;4996457;28;20042;-68
2021/12/16 04:28:47;;;;;;;11.63;6.50;;;8.10;86.50;;;;;;5013796;28;20458;-64
2021/12/16 04:31:14;;;;;;;9.85;6.57;;;8.10;86.70;;;;;;5013230;28;20038;-68
2021/12/16 04:33:40;;;;;;;10.10;6.38;;;8.10;86.50;;;;;;5013802;28;20041;-70
2021/12/16 04:36:08;;;;;;;8.98;6.30;;;8.10;86.20;;;;;;5013759;28;20022;-79
2021/12/16 04:38:35;;;;;;;9.85;6.72;;;8.10;86.50;;;;;;5013545;28;20108;-70
2021/12/16 04:41:03;;;;;;;10.60;6.10;;;8.10;86.60;;;;;;5013560;28;20076;-81
2021/12/16 04:43:38;;;;;;;10.55;7.03;;;8.10;86.50;;;;;;4995820;28;20364;-80
2021/12/16 04:46:09;;;;;;;8.82;6.28;;;8.10;86.60;;;;;;5013523;28;20049;-76
2021/12/16 04:48:36;;;;;;;9.90;6.32;;;8.10;86.30;;;;;;4996133;28;20036;-68
2021/12/16 04:51:05;;;;;;;13.88;6.90;;;8.10;86.60;;;;;;5013657;28;20483;-74
2021/12/16 04:53:32;;;;;;;10.27;6.63;;;8.00;86.40;;;;;;5013347;28;20046;-77
2021/12/16 04:55:59;;;;;;;10.27;6.30;;;8.00;86.30;;;;;;5013709;28;20048;-71
2021/12/16 04:58:26;;;;;;;9.88;6.68;;;8.00;86.80;;;;;;5013573;28;20029;-76
2021/12/16 05:00:52;;;;;;;9.93;6.32;;;8.00;86.90;;;;;;5016851;28;20026;-73
2021/12/16 05:03:20;;;;;;;11.07;7.85;;;7.90;86.60;;;;;;5013476;28;20029;-76
2021/12/16 05:05:46;;;;;;;9.73;6.43;;;7.90;87.00;;;;;;4994652;28;20042;-70
2021/12/16 05:08:13;;;;;;;9.32;6.22;;;7.90;86.40;;;;;;4995635;28;20391;-74
2021/12/16 05:10:43;;;;;;;10.02;5.97;;;7.90;85.80;;;;;;4995705;28;20022;-70
2021/12/16 05:13:09;;;;;;;8.57;5.90;;;7.90;86.60;;;;;;4996014;28;20101;-75
2021/12/16 05:15:41;;;;;;;9.95;5.65;;;7.90;86.60;;;;;;5013414;28;20110;-71
2021/12/16 05:18:14;;;;;;;10.43;6.43;;;7.90;87.20;;;;;;5013145;28;20018;-71
2021/12/16 05:20:43;;;;;;;10.40;6.43;;;7.90;86.10;;;;;;5013129;28;20042;-69
2021/12/16 05:28:40;;;;;;;11.45;6.90;;;7.90;86.60;;;;;;5013155;28;20026;-68
2021/12/16 05:31:07;;;;;;;11.10;6.70;;;8.00;86.90;;;;;;5013103;28;20513;-75
2021/12/16 05:33:34;;;;;;;11.13;6.88;;;8.00;87.00;;;;;;4995749;28;20471;-68
2021/12/16 05:36:03;;;;;;;9.35;6.20;;;8.00;85.90;;;;;;5013735;28;20022;-76
2021/12/16 05:38:30;;;;;;;10.77;6.05;;;8.00;86.00;;;;;;5013627;28;20072;-66
2021/12/16 05:40:59;;;;;;;8.98;6.18;;;8.00;87.20;;;;;;5014538;28;20402;-64
2021/12/16 05:43:28;;;;;;;9.40;5.50;;;8.00;86.10;;;;;;5013706;28;20033;-66
2021/12/16 05:45:57;;;;;;;9.93;6.68;;;8.00;87.00;;;;;;5014521;28;20488;-67
2021/12/16 05:48:30;;;;;;;10.68;6.28;;;8.00;86.70;;;;;;5012749;28;20037;-78
2021/12/16 05:51:03;;;;;;;9.27;6.10;;;8.00;87.00;;;;;;5017071;28;20128;-70
2021/12/16 05:53:35;;;;;;;12.35;6.25;;;8.00;85.90;;;;;;5000014;28;20050;-66
2021/12/16 05:56:03;;;;;;;9.95;5.50;;;8.00;85.50;;;;;;5017169;28;20052;-68
2021/12/16 05:58:31;;;;;;;9.25;5.72;;;8.00;85.70;;;;;;5011529;28;20038;-73
2021/12/16 06:01:08;;;;;;;9.43;5.30;;;8.00;85.50;;;;;;5017835;28;20025;-83
2021/12/16 06:03:34;;;;;;;8.52;5.60;;;8.00;85.30;;;;;;5001675;28;20104;-82
2021/12/16 06:06:00;;;;;;;11.25;5.82;;;8.10;86.30;;;;;;4998985;28;20495;-65
2021/12/16 06:08:30;;;;;;;8.48;5.28;;;8.10;86.40;;;;;;5016150;28;20025;-65
2021/12/16 06:11:15;;;;;;;7.95;5.65;;;8.00;85.30;;;;;;5019042;28;20494;-81
2021/12/16 06:14:07;;;;;;;10.20;6.15;;;8.10;85.70;;;;;;5019575;28;20038;-81
2021/12/16 06:27:38;;;;;;;9.10;6.22;;;8.10;85.90;;;;;;5015782;28;20115;-65
2021/12/16 06:30:09;;;;;;;12.52;6.55;;;8.10;85.80;;;;;;5015722;28;20037;-66
2021/12/16 06:32:36;;;;;;;11.35;6.28;;;8.10;85.50;;;;;;4998518;28;20542;-67
2021/12/16 06:35:03;;;;;;;11.15;6.38;;;8.20;85.60;;;;;;5015708;28;20026;-69
2021/12/16 06:37:28;;;;;;;11.48;5.70;;;8.20;85.90;;;;;;5015719;28;20084;-68
2021/12/16 06:39:58;;;;;;;11.90;5.72;;;8.10;85.50;;;;;;5015683;28;20030;-67
2021/12/16 06:42:25;;;;;;;12.77;6.22;;;8.20;85.70;;;;;;5014618;28;20452;-66
2021/12/16 06:45:03;;;;;;;8.90;6.07;;;8.20;85.80;;;;;;5015803;28;20422;-65
2021/12/16 06:47:39;;;;;;;14.27;6.25;;;8.20;85.60;;;;;;5015330;28;20060;-65
2021/12/16 06:50:07;;;;;;;10.07;6.38;;;8.20;84.70;;;;;;5015468;28;20118;-66
2021/12/16 06:52:39;;;;;;;11.05;6.55;;;8.20;85.50;;;;;;5000554;28;20108;-68
2021/12/16 06:55:15;;;;;;;11.85;6.32;;;8.20;85.30;;;;;;4995738;28;20043;-68
2021/12/16 06:57:50;;;;;;;10.07;5.95;;;8.20;85.30;;;;;;4994754;28;20080;-66
2021/12/16 07:00:29;;;;;;;8.20;5.80;;;8.20;85.30;;;;;;4995633;28;20034;-65
2021/12/16 07:03:04;;;;;;;9.73;5.90;;;8.20;85.40;;;;;;4997551;28;20129;-81
2021/12/16 07:05:41;;;;;;;9.27;5.85;;;8.30;84.10;;;;;;4982752;28;20061;-66
2021/12/16 07:08:12;;;;;;;7.72;5.15;;;8.30;85.10;;;;;;4995872;28;20022;-70
2021/12/16 07:10:39;;;;;;;8.68;5.75;;;8.40;84.90;;;;;;5005512;28;20506;-86
2021/12/16 07:13:16;;;;;;;8.63;5.50;;;8.40;84.90;;;;;;4985663;28;20054;-84
2021/12/16 07:15:48;;;;;;;19.38;6.43;;;8.50;84.70;;;;;;5003170;28;20042;-85
2021/12/16 07:18:17;;;;;;;11.27;5.53;;;8.50;84.40;;;;;;5003933;28;20092;-72
2021/12/16 07:20:43;;;;;;;19.52;5.57;;;8.50;84.10;;;;;;4995919;28;20059;-65
2021/12/16 07:23:10;;;;;;;9.23;5.22;;;8.60;84.20;;;;;;4996090;28;20340;-63
2021/12/16 07:25:36;;;;;;;9.73;5.68;;;8.60;84.30;;;;;;5007573;28;20044;-64
2021/12/16 07:28:07;;;;;;;9.77;5.30;;;8.60;84.10;;;;;;4994837;28;20029;-64
2021/12/16 07:30:38;;;;;;;8.75;4.93;;;8.60;84.30;;;;;;4995620;28;20524;-65
2021/12/16 07:33:06;;;;;;;9.40;4.97;;;8.60;84.10;;;;;;4995019;28;20042;-64
2021/12/16 07:35:33;;;;;;;9.20;5.38;;;8.70;82.70;;;;;;4995066;28;20435;-65
2021/12/16 07:37:59;;;;;;;11.75;5.25;;;8.70;83.80;;;;;;5013796;28;20092;-64
2021/12/16 07:40:26;;;;;;;9.20;5.03;;;8.80;83.60;;;;;;5010364;28;20125;-65
2021/12/16 07:45:32;;;;;;;8.23;5.07;;;8.90;83.10;;;;;;4995097;28;20472;-65
2021/12/16 07:47:59;;;;;;;10.32;4.90;;;9.00;82.90;;;;;;4990562;28;20041;-67
2021/12/16 07:50:25;;;;;;;18.83;5.68;;;9.10;82.60;;;;;;5014374;28;20100;-68
2021/12/16 07:52:51;;;;;;;8.63;5.53;;;9.10;82.70;;;;;;5013745;28;20033;-73
2021/12/16 07:55:18;;;;;;;10.73;5.40;;;9.10;82.30;;;;;;5014301;28;20058;-66
2021/12/16 07:57:44;;;;;;;11.27;5.85;;;9.10;82.40;;;;;;5013775;28;20065;-66
2021/12/16 08:00:42;;;;;;;16.30;7.78;;;9.10;82.20;;;;;;5000240;28;20073;-64
2021/12/16 08:03:11;;;;;;;16.95;8.38;;;9.00;81.30;;;;;;4974906;28;20031;-68
2021/12/16 08:05:43;;;;;;;17.92;9.38;;;9.10;82.50;;;;;;4994756;28;20034;-67
2021/12/16 08:08:11;;;;;;;14.90;8.80;;;9.10;82.30;;;;;;4995755;28;20468;-67
2021/12/16 08:10:37;;;;;;;14.88;8.45;;;9.00;81.90;;;;;;5015366;28;20057;-67
2021/12/16 08:13:04;;;;;;;14.13;8.05;;;9.00;82.10;;;;;;5016813;28;20029;-66
2021/12/16 08:15:30;;;;;;;12.70;7.35;;;9.00;82.10;;;;;;5014690;28;20030;-73
2021/12/16 08:17:58;;;;;;;10.77;5.88;;;9.10;82.30;;;;;;5015153;28;20049;-71
2021/12/16 08:20:24;;;;;;;12.20;6.32;;;9.10;81.30;;;;;;5013979;28;20056;-65
2021/12/16 08:22:52;;;;;;;12.63;6.70;;;9.20;82.00;;;;;;5010706;28;20098;-67
2021/12/16 08:25:20;;;;;;;10.43;6.53;;;9.20;81.90;;;;;;4993888;28;20041;-70
2021/12/16 08:27:48;;;;;;;14.02;6.60;;;9.30;82.10;;;;;;4978601;28;20093;-68
2021/12/16 08:30:17;;;;;;;10.88;6.40;;;9.30;81.80;;;;;;4993519;28;20487;-68
2021/12/16 08:32:44;;;;;;;12.63;6.82;;;9.30;81.70;;;;;;4993575;28;20318;-68
2021/12/16 08:35:10;;;;;;;14.73;6.88;;;9.30;81.70;;;;;;4993369;28;20066;-71
2021/12/16 08:37:36;;;;;;;20.77;7.65;;;9.30;81.70;;;;;;4975750;28;20027;-67
2021/12/16 08:40:10;;;;;;;17.83;6.72;;;9.40;81.50;;;;;;4975966;28;20041;-68
2021/12/16 08:42:37;;;;;;;14.23;6.72;;;9.50;80.50;;;;;;4993241;28;20045;-65
2021/12/16 08:45:06;;;;;;;11.15;6.80;;;9.60;81.00;;;;;;4993359;28;20041;-65
2021/12/16 08:47:32;;;;;;;13.18;6.00;;;9.60;80.60;;;;;;4976187;28;20033;-74
2021/12/16 08:49:58;;;;;;;11.63;6.60;;;9.70;80.60;;;;;;4993451;28;20027;-74
2021/12/16 08:52:27;;;;;;;16.73;6.78;;;9.70;79.80;;;;;;4976411;28;20376;-77
2021/12/16 08:54:54;;;;;;;12.35;6.15;;;9.80;79.90;;;;;;4993604;28;20042;-76
2021/12/16 08:57:24;;;;;;;12.75;6.95;;;9.90;80.00;;;;;;4976055;28;20113;-67
2021/12/16 08:59:51;;;;;;;13.48;6.60;;;9.90;80.00;;;;;;4993287;28;20559;-75
2021/12/16 09:02:19;;;;;;;12.35;6.80;;;10.00;78.70;;;;;;4993053;28;20027;-75
2021/12/16 09:04:45;;;;;;;16.95;7.07;;;10.00;78.30;;;;;;4976505;28;20031;-69
2021/12/16 09:07:13;;;;;;;12.95;6.65;;;10.10;78.30;;;;;;4992844;28;20038;-68
2021/12/16 09:09:39;;;;;;;16.38;6.78;;;10.20;78.20;;;;;;4993137;28;20488;-73
2021/12/16 09:12:36;;;;;;;16.73;7.05;;;10.20;77.40;;;;;;4975899;28;20474;-70
2021/12/16 09:15:00;;;;;;;;;;;10.30;77.40;;;;;;4980786;28;20069;-69
2021/12/16 09:17:26;;;;;;;11.18;6.28;;;10.40;77.50;;;;;;4993186;28;20000;-69
2021/12/16 09:19:54;;;;;;;16.02;6.25;;;10.50;76.80;;;;;;4992647;28;20507;-69
2021/12/16 09:22:22;;;;;;;10.35;6.10;;;10.50;75.50;;;;;;4993171;28;20030;-72
2021/12/16 09:24:50;;;;;;;10.00;5.90;;;10.50;75.20;;;;;;4975707;28;20090;-77
2021/12/16 09:27:18;;;;;;;12.77;6.50;;;10.60;75.00;;;;;;4976037;28;20034;-69
2021/12/16 09:29:45;;;;;;;9.57;6.28;;;10.60;74.60;;;;;;4993338;28;20530;-74
2021/12/16 09:32:11;;;;;;;11.43;6.30;;;10.60;74.00;;;;;;4976124;28;20026;-74
2021/12/16 09:34:42;;;;;;;14.38;6.55;;;10.70;74.30;;;;;;4996642;28;20494;-77
2021/12/16 09:37:09;;;;;;;9.55;6.03;;;10.80;74.30;;;;;;4993188;28;20118;-79
2021/12/16 09:39:37;;;;;;;15.25;6.47;;;10.90;74.30;;;;;;4993041;28;20061;-78
2021/12/16 09:42:05;;;;;;;16.83;6.50;;;11.00;74.10;;;;;;4959821;28;20037;-73
2021/12/16 09:44:32;;;;;;;11.05;5.75;;;11.00;74.20;;;;;;4975496;28;20109;-69
2021/12/16 09:47:04;;;;;;;11.32;6.10;;;11.10;74.00;;;;;;4993360;28;20098;-73
2021/12/16 09:49:31;;;;;;;13.02;6.60;;;11.20;73.60;;;;;;4993296;28;20033;-75
2021/12/16 09:51:59;;;;;;;11.00;5.80;;;11.20;73.50;;;;;;4993229;28;20109;-77
2021/12/16 09:54:30;;;;;;;16.05;6.43;;;11.30;73.20;;;;;;4996345;28;20046;-76
2021/12/16 09:56:58;;;;;;;17.20;6.43;;;11.30;72.70;;;;;;4992796;28;20037;-78
2021/12/16 09:59:29;;;;;;;13.48;6.47;;;11.40;72.70;;;;;;4992823;28;20049;-73
2021/12/16 10:01:57;;;;;;;16.48;7.07;;;11.50;72.60;;;;;;4975928;28;20180;-74
2021/12/16 10:04:31;;;;;;;12.32;6.55;;;11.50;71.90;;;;;;4975760;28;20085;-78
2021/12/16 10:07:03;;;;;;;28.67;6.90;;;11.60;72.30;;;;;;4991408;28;20046;-72
2021/12/16 10:09:35;;;;;;;16.30;6.60;;;11.70;72.00;;;;;;4975755;28;20042;-79
2021/12/16 10:12:12;;;;;;;16.42;6.22;;;11.70;71.80;;;;;;4974626;28;20038;-73
2021/12/16 10:17:31;;;;;;;16.58;6.10;;;12.00;71.60;;;;;;4977496;28;20035;-73
2021/12/16 10:20:01;;;;;;;11.15;5.88;;;12.10;71.30;;;;;;4991824;28;20053;-75
2021/12/16 10:22:39;;;;;;;9.07;5.30;;;12.10;70.60;;;;;;4992669;28;20026;-78
2021/12/16 10:25:24;;;;;;;12.95;6.90;;;12.20;70.50;;;;;;4973839;28;20042;-75
2021/12/16 10:27:52;;;;;;;10.25;5.65;;;12.30;70.40;;;;;;4992314;28;20476;-69
2021/12/16 10:30:18;;;;;;;16.40;5.57;;;12.30;70.00;;;;;;4992386;28;20034;-70
2021/12/16 10:32:48;;;;;;;10.73;5.22;;;12.40;69.80;;;;;;4995062;28;20435;-74
2021/12/16 10:35:24;;;;;;;9.85;4.95;;;12.50;69.50;;;;;;4978920;28;20037;-68
2021/12/16 10:37:54;;;;;;;10.48;5.45;;;12.60;68.60;;;;;;4995594;28;20480;-68
2021/12/16 10:40:43;;;;;;;9.10;4.80;;;12.70;68.70;;;;;;4996220;28;20030;-69
2021/12/16 10:43:25;;;;;;;9.93;5.35;;;12.70;68.20;;;;;;4996127;28;20101;-70
2021/12/16 10:46:11;;;;;;;10.82;5.22;;;12.80;67.70;;;;;;4995827;28;20562;-67
2021/12/16 10:48:44;;;;;;;9.00;4.10;;;12.90;67.70;;;;;;4995662;28;20427;-67
2021/12/16 10:51:17;;;;;;;10.75;4.25;;;12.90;66.50;;;;;;4995752;28;20461;-66
2021/12/16 10:53:51;;;;;;;8.07;4.15;;;13.00;66.00;;;;;;4995528;28;20046;-66
2021/12/16 10:56:23;;;;;;;9.52;3.78;;;13.10;65.70;;;;;;4995557;28;20036;-67
2021/12/16 10:58:56;;;;;;;6.90;3.83;;;13.10;65.20;;;;;;4995481;28;20475;-68
2021/12/16 11:01:51;;;;;;;7.40;3.80;;;13.20;65.50;;;;;;4995781;28;20038;-68
2021/12/16 11:04:19;;;;;;;9.65;4.15;;;13.30;64.90;;;;;;4992859;28;20030;-75
2021/12/16 11:06:48;;;;;;;8.65;3.80;;;13.30;65.00;;;;;;4995282;28;20070;-72
2021/12/16 11:09:26;;;;;;;8.98;4.15;;;13.40;64.20;;;;;;4995288;28;20022;-69
2021/12/16 11:12:24;;;;;;;8.60;3.90;;;13.50;64.40;;;;;;4995371;28;20417;-66
2021/12/16 11:15:06;;;;;;;8.40;4.00;;;13.60;63.50;;;;;;4952203;28;20429;-67
2021/12/16 11:18:03;;;;;;;10.23;3.72;;;13.60;63.50;;;;;;4995387;28;20030;-69
2021/12/16 11:20:49;;;;;;;5.80;3.35;;;13.70;63.50;;;;;;4984469;28;20054;-71
2021/12/16 11:23:33;;;;;;;6.57;3.63;;;13.70;62.90;;;;;;4995121;28;20101;-73
2021/12/16 11:26:09;;;;;;;8.85;3.80;;;13.80;61.90;;;;;;4977784;28;20129;-75
2021/12/16 11:28:40;;;;;;;7.03;3.90;;;13.90;61.80;;;;;;4977674;28;20042;-70
2021/12/16 11:31:22;;;;;;;8.18;3.58;;;13.90;62.10;;;;;;4995086;28;20026;-70
2021/12/16 11:33:51;;;;;;;7.85;4.50;;;14.00;62.10;;;;;;4995468;28;20062;-71
2021/12/16 11:36:30;;;;;;;8.57;4.80;;;14.10;61.80;;;;;;4995868;28;20038;-80
2021/12/16 11:39:03;;;;;;;8.85;4.32;;;14.10;62.00;;;;;;4995956;28;20031;-77
2021/12/16 11:41:43;;;;;;;9.73;4.07;;;14.20;61.40;;;;;;4995495;28;20038;-70
2021/12/16 11:44:21;;;;;;;11.98;4.82;;;14.30;60.90;;;;;;4994887;28;20085;-73
2021/12/16 11:47:06;;;;;;;10.88;4.57;;;14.30;60.40;;;;;;4995138;28;20117;-75
2021/12/16 11:49:41;;;;;;;11.90;4.30;;;14.40;60.80;;;;;;4995592;28;20030;-73
2021/12/16 11:52:06;;;;;;;9.65;3.63;;;14.40;60.60;;;;;;4995301;28;20049;-69
2021/12/16 11:54:40;;;;;;;7.43;3.80;;;14.50;60.30;;;;;;4995147;28;20478;-72
2021/12/16 11:57:19;;;;;;;9.05;4.07;;;14.50;60.20;;;;;;4996075;28;20038;-69
2021/12/16 12:00:01;;;;;;;6.82;3.35;;;14.60;59.80;;;;;;4997007;28;20383;-72
2021/12/16 12:02:35;;;;;;;7.82;3.78;;;14.60;59.40;;;;;;4994745;28;20018;-69
2021/12/16 12:05:20;;;;;;;13.50;4.03;;;14.70;59.10;;;;;;4977218;28;20042;-69
2021/12/16 12:08:15;;;;;;;6.55;4.10;;;14.80;59.60;;;;;;4994282;28;20129;-75
2021/12/16 12:10:59;;;;;;;9.85;3.80;;;14.80;58.90;;;;;;4994421;28;20041;-69
2021/12/16 12:13:29;;;;;;;5.70;3.22;;;14.90;58.30;;;;;;4994402;28;20042;-70
2021/12/16 12:16:08;;;;;;;7.95;3.78;;;14.90;58.20;;;;;;4993859;28;20085;-69
2021/12/16 12:18:48;;;;;;;7.78;4.07;;;15.00;58.10;;;;;;4994146;28;20037;-68
2021/12/16 12:21:21;;;;;;;10.60;3.90;;;15.00;57.90;;;;;;4994505;28;20027;-69
2021/12/16 12:23:50;;;;;;;6.85;2.80;;;15.10;57.70;;;;;;4994350;28;20031;-69
2021/12/16 12:26:16;;;;;;;10.90;3.53;;;15.10;57.60;;;;;;4993974;28;20116;-69
2021/12/16 12:28:44;;;;;;;5.25;2.90;;;15.20;57.50;;;;;;4993662;28;20081;-70
2021/12/16 12:31:10;;;;;;;5.15;2.83;;;15.20;57.70;;;;;;4993988;28;20027;-68
2021/12/16 12:33:36;;;;;;;5.80;3.20;;;15.20;56.60;;;;;;4993947;28;20431;-70
2021/12/16 12:36:04;;;;;;;8.73;3.30;;;15.20;56.40;;;;;;4994229;28;20030;-75
2021/12/16 12:38:31;;;;;;;5.43;3.55;;;15.30;56.30;;;;;;4994133;28;20030;-71
2021/12/16 12:40:58;;;;;;;7.30;3.50;;;15.30;56.10;;;;;;4993903;28;20092;-67
2021/12/16 12:43:24;;;;;;;7.78;3.60;;;15.40;56.40;;;;;;4993729;28;20018;-68
2021/12/16 12:45:50;;;;;;;7.60;3.72;;;15.40;56.70;;;;;;4993822;28;20447;-70
2021/12/16 12:48:20;;;;;;;10.18;4.80;;;15.40;56.70;;;;;;4993673;28;20026;-71
2021/12/16 12:50:49;;;;;;;9.52;4.10;;;15.50;56.70;;;;;;4993709;28;20027;-71
2021/12/16 12:53:17;;;;;;;10.10;3.78;;;15.50;56.50;;;;;;4993443;28;20046;-73
2021/12/16 12:55:46;;;;;;;14.82;4.90;;;15.50;56.40;;;;;;4992847;28;20045;-67
2021/12/16 12:58:16;;;;;;;10.38;4.35;;;15.60;56.90;;;;;;4977049;28;20380;-74
2021/12/16 13:00:47;;;;;;;7.50;4.65;;;15.60;56.70;;;;;;4993818;28;20040;-71
2021/12/16 13:03:22;;;;;;;13.43;5.13;;;15.60;56.30;;;;;;4993529;28;20030;-66
2021/12/16 13:06:05;;;;;;;8.27;4.95;;;15.60;56.50;;;;;;4976456;28;20066;-68
2021/12/16 13:08:34;;;;;;;51.28;10.10;;;15.60;56.60;;;;;;4993811;28;20026;-68
2021/12/16 13:11:08;;;;;;;20.98;5.32;;;15.60;56.70;;;;;;4993598;28;20427;-72
2021/12/16 13:13:42;;;;;;;75.28;12.68;;;15.70;56.50;;;;;;4993572;28;20026;-69
2021/12/16 13:26:50;;;;;;;7.78;4.80;;;15.90;57.60;;;;;;4993290;28;20035;-70
2021/12/16 13:29:33;;;;;;;12.00;5.57;;;15.90;57.40;;;;;;4993247;28;20039;-70
2021/12/16 13:32:23;;;;;;;8.57;4.75;;;16.00;58.10;;;;;;4993204;28;20413;-65
2021/12/16 13:35:21;;;;;;;12.77;6.97;;;16.00;57.90;;;;;;4992922;28;20057;-74
2021/12/16 13:37:50;;;;;;;13.10;5.35;;;16.00;58.30;;;;;;4992935;28;20034;-77
2021/12/16 13:40:49;;;;;;;12.05;5.90;;;16.00;58.70;;;;;;4992982;28;20029;-78
2021/12/16 13:43:24;;;;;;;11.35;5.78;;;16.10;59.30;;;;;;4951079;28;20045;-75
2021/12/16 13:46:27;;;;;;;8.40;5.05;;;16.10;59.20;;;;;;4994618;28;20053;-73
2021/12/16 13:58:30;;;;;;;12.93;5.82;;;16.40;59.10;;;;;;4993106;28;20101;-71
2021/12/16 14:01:25;;;;;;;12.52;5.80;;;16.60;58.50;;;;;;4992439;28;20035;-71
2021/12/16 14:04:04;;;;;;;10.82;5.50;;;16.60;58.80;;;;;;4993142;28;20105;-71
2021/12/16 14:07:13;;;;;;;9.93;5.57;;;16.50;59.30;;;;;;4993546;28;20035;-71
2021/12/16 14:10:13;;;;;;;9.80;5.10;;;16.40;60.00;;;;;;4996729;28;20050;-71
2021/12/16 14:13:52;;;;;;;8.00;5.47;;;16.20;60.10;;;;;;4996519;28;20440;-70
2021/12/16 14:26:49;;;;;;;7.97;5.25;;;15.70;62.10;;;;;;4996382;28;19920;-71
2021/12/16 14:38:08;;;;;;;11.57;5.57;;;15.50;63.10;;;;;;4996370;28;20030;-70
2021/12/16 14:40:35;;;;;;;12.85;6.15;;;15.40;63.10;;;;;;4994904;28;20062;-71
2021/12/16 14:45:46;;;;;;;9.02;5.72;;;15.40;63.00;;;;;;4996240;28;20053;-70
2021/12/16 14:48:25;;;;;;;14.10;6.40;;;15.30;63.30;;;;;;4995980;28;20428;-70
2021/12/16 14:50:57;;;;;;;8.65;5.32;;;15.30;63.10;;;;;;4978393;28;20041;-71
2021/12/16 14:53:43;;;;;;;12.77;7.18;;;15.20;63.00;;;;;;4978146;28;20023;-71
2021/12/16 14:56:20;;;;;;;11.00;6.50;;;15.20;62.70;;;;;;4995547;28;20030;-71
2021/12/16 14:58:56;;;;;;;12.23;6.53;;;15.20;63.20;;;;;;4995375;28;20034;-71
2021/12/16 15:01:32;;;;;;;8.73;5.72;;;15.10;62.80;;;;;;4977812;28;20430;-70
2021/12/16 15:04:01;;;;;;;12.77;6.13;;;15.10;62.80;;;;;;4995358;28;20049;-70
2021/12/16 15:07:01;;;;;;;12.82;6.03;;;15.00;62.70;;;;;;4995220;28;20062;-72
2021/12/16 15:12:01;;;;;;;8.48;5.18;;;14.90;62.60;;;;;;4995522;28;20054;-71
2021/12/16 15:14:51;;;;;;;14.45;6.47;;;14.80;62.50;;;;;;4995145;28;20015;-71
2021/12/16 15:33:23;;;;;;;13.65;6.18;;;14.40;63.80;;;;;;4995330;28;20088;-70
2021/12/16 15:45:33;;;;;;;10.88;5.70;;;14.10;64.80;;;;;;4974035;28;20035;-71
2021/12/16 15:48:04;;;;;;;11.32;6.00;;;14.00;66.00;;;;;;4994568;28;20058;-70
2021/12/16 15:50:39;;;;;;;10.23;5.78;;;14.00;66.20;;;;;;4994614;28;20497;-71
2021/12/16 15:53:15;;;;;;;11.57;5.78;;;13.90;65.70;;;;;;4994694;28;20101;-71
2021/12/16 15:55:56;;;;;;;13.63;6.45;;;13.90;65.90;;;;;;4974968;28;20412;-70
2021/12/16 15:58:29;;;;;;;13.65;7.03;;;13.80;66.00;;;;;;4975321;28;20106;-71
2021/12/16 16:00:59;;;;;;;13.75;7.28;;;13.80;66.20;;;;;;4975207;28;20066;-69
2021/12/16 16:03:26;;;;;;;15.60;7.07;;;13.70;66.20;;;;;;4975053;28;20053;-72
2021/12/16 16:05:59;;;;;;;16.23;6.57;;;13.70;66.60;;;;;;4974934;28;20035;-72
2021/12/16 16:08:28;;;;;;;15.93;6.65;;;13.70;66.90;;;;;;4974559;28;20129;-70
2021/12/16 16:11:06;;;;;;;15.25;6.60;;;13.60;66.90;;;;;;4974800;28;20033;-71
2021/12/16 16:13:42;;;;;;;17.88;7.15;;;13.60;67.40;;;;;;4974757;28;20102;-71
2021/12/16 16:16:11;;;;;;;14.57;6.97;;;13.60;67.60;;;;;;4974662;28;20074;-70
2021/12/16 16:18:41;;;;;;;14.07;7.40;;;13.50;67.80;;;;;;4973382;28;20049;-70
2021/12/16 16:21:15;;;;;;;11.10;6.65;;;13.50;67.90;;;;;;4974546;28;20550;-71
2021/12/16 16:23:45;;;;;;;12.40;6.90;;;13.50;68.20;;;;;;4974670;28;20031;-72
2021/12/16 16:26:13;;;;;;;10.88;6.00;;;13.40;68.40;;;;;;4974363;28;20365;-70
2021/12/16 16:28:41;;;;;;;14.65;7.15;;;13.40;68.70;;;;;;4974373;28;20465;-71
2021/12/16 16:31:15;;;;;;;13.70;6.43;;;13.40;68.80;;;;;;4974088;28;20109;-71
2021/12/16 16:33:41;;;;;;;23.58;8.88;;;13.40;68.80;;;;;;4974382;28;20023;-72
2021/12/16 16:36:11;;;;;;;12.98;6.95;;;13.40;69.00;;;;;;4974099;28;20030;-70
2021/12/16 16:38:41;;;;;;;14.55;8.23;;;13.30;69.00;;;;;;4974356;28;20068;-70
2021/12/16 16:41:17;;;;;;;11.32;7.22;;;13.30;69.10;;;;;;4974309;28;20118;-71
2021/12/16 16:43:44;;;;;;;15.88;8.38;;;13.30;69.00;;;;;;4974077;28;20037;-71
2021/12/16 16:46:38;;;;;;;16.20;8.43;;;13.30;69.20;;;;;;4974182;28;20476;-69
2021/12/16 16:49:08;;;;;;;15.50;8.57;;;13.20;69.40;;;;;;4974172;28;20479;-72
2021/12/16 16:51:41;;;;;;;15.13;8.10;;;13.20;69.60;;;;;;4974139;28;20033;-71
2021/12/16 16:54:27;;;;;;;18.83;7.93;;;13.20;70.10;;;;;;4981795;28;20046;-71
2021/12/16 16:57:10;;;;;;;16.63;9.02;;;13.10;70.30;;;;;;4979980;28;20495;-71
2021/12/16 16:59:36;;;;;;;21.38;9.90;;;13.10;70.20;;;;;;4993363;28;20044;-71
2021/12/16 17:02:15;;;;;;;17.98;9.23;;;13.10;70.80;;;;;;4993361;28;20030;-70
2021/12/16 17:04:41;;;;;;;20.27;10.48;;;13.10;70.90;;;;;;4993168;28;20026;-72
2021/12/16 17:07:07;;;;;;;19.17;9.10;;;13.10;71.00;;;;;;4993180;28;20027;-71